首页
METAR-TAF:

METAR-TAF

机场 :

扎達爾, 克罗地亚

纬度: 44-06N, 经度: 015-21E, 海拔: 82米

当前天气观测

该预报发布于15分钟前的09:30 UTC
风速4节,风向西转西北,在西西北之间变化
温度 22°C
湿度 65%
气压 1022 hPa
能见度10公里或以上
1500米以下无云,无积雨云

METAR: LDZD 220930Z 30004KT 260V320 CAVOK 22/15 Q1022 NOSIG

时间: 11:45 (09:45 UTC)

预报

该预报发布于2小时和32分钟前的07:13 UTC
预报有效从22日的 06点(UTC)到 23日的 06点(UTC)
风速2节,风向多变
能见度10公里或以上
1500米以下无云,无积雨云
几率 30% :
短暂存在
从 22日的 06点(UTC)到 22日的 07点(UTC)
能見度: 3000
碎片雾
几率 30% :
短暂存在
从 22日的 12点(UTC)到 22日的 15点(UTC)
风速8节,风向西转西北
成为
从 22日的 18点(UTC)到 22日的 20点(UTC)
能見度: 3000
碎片雾
短暂存在
从 22日的 21点(UTC)到 23日的 06点(UTC)
能見度: 0400

TAF: LDZD 220713Z 2206/2306 VRB02KT CAVOK TX25/2212Z TN10/2303Z PROB30 TEMPO 2206/2207 3000 BCFG PROB30 TEMPO 2212/2215 30008KT BECMG 2218/2220 3000 BCFG TEMPO 2221/2306 0400 FG

超过4000个机场的气象观测和天气预报(METAR&TAF报告)。

可查询的气象台以黄色和红色小点在地图上表示。

将鼠标移到小点上方,可查看气象台名称。

然后点击查看天气观测和预报。

如需切换地图:点击带黑十字的绿色按钮放大地图;点击带横线的绿色按钮缩小地图;或者点击绿色箭头查看邻近地区的地图。


METAR-TAF: